Latest Coastal Weather Observations for Mardie

IDW60701

Issued at 8:15 pm WST Wednesday 22 October 2014 (issued every 10 minutes, with the page automatically refreshed every 10 minutes)

About coastal observations | Map of coastal stations | Coastal observations for WA | Marine services | Other Formats
Station Details ID: 005008 Name: MARDIE Lat: -21.19 Lon: 115.98 Height: 11.0 m
Data from the previous 72 hours. | See also: Recent months at Mardie
Date/Time
WST
Temp

°C
Wind Pressure Rain
since 9am
mm
Weather Cloud Vis
km
Sea
Height
m
Swell
Dir
 
Speed
knots
Gust
knots
hPa Trend Height
m
Period
s
Dir
22/08:00pm 29.8 WSW 9 13 1013.0 - 0.0 - - - - - - -
22/07:30pm 29.3 WSW 9 12 1012.7 - 0.0 - - - - - - -
22/07:00pm 28.7 WSW 13 17 1012.2 - 0.0 - - - - - - -
22/06:30pm 28.4 W 11 14 1012.7 - 0.0 - - - - - - -
22/06:00pm 28.7 W 13 18 1012.6 - 0.0 - - - - - - -
22/05:30pm 29.6 W 13 19 1012.3 - 0.0 - - - - - - -
22/05:00pm 30.2 W 15 21 1012.0 - 0.0 - - - - - - -
22/04:30pm 31.6 W 15 19 1011.8 - 0.0 - - - - - - -
22/04:00pm 32.3 W 13 17 1011.5 - 0.0 - - - - - - -
22/03:30pm 33.4 W 16 21 1011.6 - 0.0 - - - - - - -
22/03:00pm 34.4 W 15 19 1011.5 - 0.0 - - - - - - -
22/02:30pm 34.5 W 16 22 1011.8 - 0.0 - - - - - - -
22/02:00pm 35.6 W 16 21 1012.0 - 0.0 - - - - - - -
22/01:30pm 38.7 SW 9 14 1012.2 - 0.0 - - - - - - -
22/01:00pm 38.2 SW 12 17 1012.7 - 0.0 - - - - - - -
22/12:30pm 37.8 SW 11 18 1013.1 - 0.0 - - - - - - -
22/12:00pm 37.0 SW 13 20 1013.4 - 0.0 - - - - - - -
22/11:30am 36.0 SW 13 18 1013.9 - 0.0 - - - - - - -
22/11:00am 35.3 SSW 11 18 1014.5 - 0.0 - - - - - - -
22/10:30am 33.0 SSW 10 15 1014.9 - 0.0 - - - - - - -
22/10:00am 32.8 SW 12 17 1015.3 - 0.0 - - - - - - -
22/09:30am 31.2 SW 11 15 1015.5 - 0.0 - - - - - - -
22/09:00am 29.4 SW 11 16 1015.7 - 0.0 - - - - - - -
22/08:30am 28.0 SW 11 15 1015.7 - 0.0 - - - - - - -
22/08:00am 26.3 SW 11 15 1015.6 - 0.0 - - - - - - -
22/07:30am 25.1 SW 11 14 1015.6 - 0.0 - - - - - - -
22/07:00am 23.1 SW 7 11 1015.3 - 0.0 - - - - - - -
22/06:30am 21.0 SSW 6 8 1014.6 - 0.0 - - - - - - -
22/06:00am 19.7 SSW 5 7 1014.6 - 0.0 - - - - - - -
22/05:30am 19.4 SW 5 6 1014.4 - 0.0 - - - - - - -
22/05:00am 20.0 SW 5 6 1014.1 - 0.0 - - - - - - -
22/04:30am 19.9 SW 5 6 1014.1 - 0.0 - - - - - - -
22/04:00am 20.0 SW 5 6 1014.0 - 0.0 - - - - - - -
22/03:30am 20.2 SW 5 6 1014.1 - 0.0 - - - - - - -
22/03:00am 20.4 SW 4 5 1014.1 - 0.0 - - - - - - -
22/02:30am 21.3 SW 6 8 1014.2 - 0.0 - - - - - - -
22/02:00am 21.4 SW 8 10 1014.2 - 0.0 - - - - - - -
22/01:30am 21.5 SW 7 10 1014.4 - 0.0 - - - - - - -
22/01:00am 21.3 SW 5 6 1014.8 - 0.0 - - - - - - -
22/12:30am 21.5 SSW 4 5 1015.1 - 0.0 - - - - - - -
22/12:00am 21.9 SSW 4 5 1015.2 - 0.0 - - - - - - -
 
Date/Time
WST
Temp

°C
Wind Pressure Rain
since 9am
mm
Weather Cloud Vis
km
Sea
Height
m
Swell
Dir
 
Speed
knots
Gust
knots
hPa Trend Height
m
Period
s
Dir
21/11:30pm 22.2 SSW 5 6 1015.4 - 0.0 - - - - - - -
21/11:00pm 22.6 SSW 5 7 1015.8 - 0.0 - - - - - - -
21/10:30pm 23.1 SW 6 7 1016.1 - 0.0 - - - - - - -
21/10:00pm 23.5 SW 5 8 1016.2 - 0.0 - - - - - - -
21/09:30pm 23.9 WSW 7 9 1016.4 - 0.0 - - - - - - -
21/09:00pm 24.1 WSW 4 5 1016.3 - 0.0 - - - - - - -
21/08:30pm 23.9 WSW 4 5 1015.9 - 0.0 - - - - - - -
21/08:00pm 24.1 WSW 4 5 1015.8 - 0.0 - - - - - - -
21/07:30pm 24.7 W 5 7 1015.6 - 0.0 - - - - - - -
21/07:00pm 25.2 W 7 9 1015.5 - 0.0 - - - - - - -
21/06:30pm 25.8 W 7 10 1015.2 - 0.0 - - - - - - -
21/06:00pm 27.1 W 10 14 1014.9 - 0.0 - - - - - - -
21/05:30pm 28.1 W 12 16 1014.6 - 0.0 - - - - - - -
21/05:00pm 29.3 WNW 13 17 1014.3 - 0.0 - - - - - - -
21/04:30pm 29.5 WNW 13 17 1014.2 - 0.0 - - - - - - -
21/04:00pm 30.3 WNW 12 15 1014.1 - 0.0 - - - - - - -
21/03:30pm 29.9 WNW 13 16 1014.0 - 0.0 - - - - - - -
21/03:00pm 30.4 WNW 13 18 1014.2 - 0.0 - - - - - - -
21/02:30pm 31.1 WNW 12 16 1014.4 - 0.0 - - - - - - -
21/02:00pm 31.1 WNW 12 15 1014.7 - 0.0 - - - - - - -
21/01:30pm 30.9 WNW 11 15 1014.9 - 0.0 - - - - - - -
21/01:00pm 31.4 WNW 11 16 1015.2 - 0.0 - - - - - - -
21/12:30pm 31.5 WNW 9 13 1015.5 - 0.0 - - - - - - -
21/12:00pm 31.4 WNW 8 11 1015.8 - 0.0 - - - - - - -
21/11:30am 31.8 NW 5 9 1015.9 - 0.0 - - - - - - -
21/11:00am 30.6 WNW 6 9 1016.2 - 0.0 - - - - - - -
21/10:30am 30.4 WNW 5 9 1016.5 - 0.0 - - - - - - -
21/10:00am 30.3 WNW 2 7 1016.9 - 0.0 - - - - - - -
21/09:30am 28.1 W 3 5 1016.9 - 0.0 - - - - - - -
21/09:00am 26.3 SSW 4 7 1016.9 - 0.0 - - - - - - -
21/08:30am 24.9 S 5 7 1016.8 - 0.0 - - - - - - -
21/08:00am 22.4 SSW 5 7 1016.9 - 0.0 - - - - - - -
21/07:30am 21.1 SSW 5 7 1016.9 - 0.0 - - - - - - -
21/07:00am 19.8 SSW 7 9 1016.7 - 0.0 - - - - - - -
21/06:30am 18.7 SW 5 6 1016.5 - 0.0 - - - - - - -
21/06:00am 17.5 SW 5 7 1016.1 - 0.0 - - - - - - -
21/05:30am 17.6 SW 5 6 1015.8 - 0.0 - - - - - - -
21/05:00am 18.0 WSW 5 6 1015.8 - 0.0 - - - - - - -
21/04:30am 18.4 WSW 5 7 1015.6 - 0.0 - - - - - - -
21/04:00am 18.6 WSW 6 8 1015.5 - 0.0 - - - - - - -
21/03:30am 18.8 WSW 6 7 1015.5 - 0.0 - - - - - - -
21/03:00am 19.3 W 5 7 1015.4 - 0.0 - - - - - - -
21/02:30am 19.8 WSW 5 7 1015.4 - 0.0 - - - - - - -
21/02:00am 20.3 W 5 7 1015.3 - 0.0 - - - - - - -
21/01:30am 21.0 WSW 6 8 1015.4 - 0.0 - - - - - - -
21/01:00am 21.6 WSW 6 7 1015.6 - 0.0 - - - - - - -
21/12:30am 22.0 WSW 6 9 1015.6 - 0.0 - - - - - - -
21/12:00am 22.1 W 6 9 1015.7 - 0.0 - - - - - - -
 
Date/Time
WST
Temp

°C
Wind Pressure Rain
since 9am
mm
Weather Cloud Vis
km
Sea
Height
m
Swell
Dir
 
Speed
knots
Gust
knots
hPa Trend Height
m
Period
s
Dir
20/11:30pm 22.2 W 5 7 1015.9 - 0.0 - - - - - - -
20/11:00pm 22.5 W 6 8 1016.3 - 0.0 - - - - - - -
20/10:30pm 22.7 W 8 11 1016.5 - 0.0 - - - - - - -
20/10:00pm 22.7 W 8 11 1016.5 - 0.0 - - - - - - -
20/09:30pm 22.8 W 8 12 1016.5 - 0.0 - - - - - - -
20/09:00pm 23.0 W 8 11 1016.4 - 0.0 - - - - - - -
20/08:30pm 23.1 W 7 10 1016.1 - 0.0 - - - - - - -
20/08:00pm 23.4 W 9 13 1015.8 - 0.0 - - - - - - -
20/07:30pm 23.6 WNW 8 12 1015.5 - 0.0 - - - - - - -
20/07:00pm 24.0 WNW 9 13 1015.0 - 0.0 - - - - - - -
20/06:30pm 24.5 WNW 9 13 1014.6 - 0.0 - - - - - - -
20/06:00pm 25.1 W 12 16 1014.3 - 0.0 - - - - - - -
20/05:30pm 25.6 WNW 14 18 1013.9 - 0.0 - - - - - - -
20/05:00pm 26.4 WNW 15 19 1013.6 - 0.0 - - - - - - -
20/04:30pm 27.0 W 14 19 1013.5 - 0.0 - - - - - - -
20/04:00pm 27.7 WNW 14 18 1013.5 - 0.0 - - - - - - -
20/03:30pm 28.7 WNW 14 18 1013.5 - 0.0 - - - - - - -
20/03:00pm 29.2 WNW 14 18 1013.4 - 0.0 - - - - - - -
20/02:30pm 30.3 WNW 12 16 1013.4 - 0.0 - - - - - - -
20/02:00pm 29.3 WNW 13 17 1013.5 - 0.0 - - - - - - -
20/01:30pm 29.4 WNW 11 15 1013.8 - 0.0 - - - - - - -
20/01:00pm 29.0 WNW 12 17 1014.1 - 0.0 - - - - - - -
20/12:30pm 29.8 WNW 11 16 1014.5 - 0.0 - - - - - - -
20/12:00pm 29.8 W 10 16 1014.6 - 0.0 - - - - - - -
20/11:30am 30.3 W 5 10 1014.9 - 0.0 - - - - - - -
20/11:00am 29.5 SSW 7 12 1015.4 - 0.0 - - - - - - -
20/10:30am 28.2 S 4 8 1015.9 - 0.0 - - - - - - -
20/10:00am 27.6 S 7 11 1016.3 - 0.0 - - - - - - -
20/09:30am 26.7 S 7 13 1016.7 - 0.0 - - - - - - -
20/09:00am 25.1 SSW 9 14 1016.9 - 0.0 - - - - - - -
20/08:30am 24.3 S 11 14 1016.8 - 0.0 - - - - - - -
20/08:00am 22.5 S 11 16 1016.7 - 0.0 - - - - - - -
20/07:30am 21.2 SSW 11 13 1016.7 - 0.0 - - - - - - -
20/07:00am 19.4 SSW 8 11 1016.6 - 0.0 - - - - - - -
20/06:30am 17.2 SW 4 6 1016.4 - 0.0 - - - - - - -
20/06:00am 15.5 SW 4 5 1016.0 - 0.0 - - - - - - -
20/05:30am 15.9 SW 5 6 1015.6 - 0.0 - - - - - - -
20/05:00am 16.1 SW 4 5 1015.3 - 0.0 - - - - - - -
20/04:30am 16.4 SW 4 6 1015.0 - 0.0 - - - - - - -
20/04:00am 16.5 SW 4 6 1014.7 - 0.0 - - - - - - -
20/03:30am 17.2 SW 5 6 1014.6 - 0.0 - - - - - - -
20/03:00am 17.9 SW 6 8 1014.6 - 0.0 - - - - - - -
20/02:30am 18.6 SW 6 8 1014.6 - 0.0 - - - - - - -
20/02:00am 19.0 WSW 7 8 1014.7 - 0.0 - - - - - - -
20/01:30am 19.2 SW 6 8 1014.8 - 0.0 - - - - - - -
20/01:00am 19.1 SW 6 7 1014.8 - 0.0 - - - - - - -
20/12:30am 19.9 SW 6 8 1015.0 - 0.0 - - - - - - -
20/12:00am 21.0 SW 8 11 1015.1 - 0.0 - - - - - - -
 
Date/Time
WST
Temp

°C
Wind Pressure Rain
since 9am
mm
Weather Cloud Vis
km
Sea
Height
m
Swell
Dir
 
Speed
knots
Gust
knots
hPa Trend Height
m
Period
s
Dir
19/11:30pm 21.7 WSW 9 12 1015.2 - 0.0 - - - - - - -
19/11:00pm 22.5 WSW 11 16 1015.2 - 0.0 - - - - - - -
19/10:30pm 22.4 WSW 8 12 1015.2 - 0.0 - - - - - - -
19/10:00pm 22.6 W 10 13 1015.0 - 0.0 - - - - - - -
19/09:30pm 22.8 W 10 14 1014.9 - 0.0 - - - - - - -
19/09:00pm 23.0 W 12 18 1014.7 - 0.0 - - - - - - -
19/08:30pm 23.4 W 11 14 1014.3 - 0.0 - - - - - - -

Other Formats:

Comma delimited format used in spreadsheet applications
http://www.bom.gov.au/fwo/IDW60701/IDW60701.94306.axf

JavaScript Object Notation format (JSON) in row-major order
http://www.bom.gov.au/fwo/IDW60701/IDW60701.94306.json